Kenema Airport

Jump to: basic info | weather | comments

Related pages: nearby airports | nearby navaids | notams | map

Basic information (top)

Codes: KEN GFKE
Location: lon 7.891290, lat -11.176600, elev 485 ft / 148 m msl
Status: medium_airport
Scheduled airline service: yes
Links: Wikipedia Mobile

Weather (top)

Current conditions for Roberts International Airport 111nm (205km) SSE (rec'd 2014/11/01 01:30Z):

GLRB 010130Z 00000KT 7000 FEW012 FEW023 CB 24/23 Q1012 RMK CB-SW/W BRVC

Airport forecast for Roberts International Airport 111nm (205km) SSE (rec'd 2014/10/31 00:54Z):

TAF TAF GLRB 312200Z 0100/0206 12008KT 8000 BKN014 
      BECMG 0102/0104 7000 TSRA SCT004 BKN014 FEW024CB 
      TEMPO 0105/0110 24010KT 8000 FM 011200 36010KT BKN015 FEW025CB

Latest comments (top)

No comments yet for Kenema Airport

More... (top)

See also NOTAMs and nearby airports and navaids, or visit the Kenema Airport page at the main OurAirports website..